createdAt,value
2023-05-05T01:05:27.108Z,55.07
2023-05-05T01:08:09.121Z,54.92
2023-05-05T01:10:42.256Z,54.83
2023-05-05T01:13:39.801Z,55.19
2023-05-05T01:16:24.399Z,55.17
2023-05-05T01:18:57.682Z,54.61
2023-05-05T01:21:35.372Z,54.87
2023-05-05T01:24:22.392Z,54.90
2023-05-05T01:27:13.715Z,55.31
2023-05-05T01:29:40.352Z,55.21
2023-05-05T01:32:12.429Z,55.39
2023-05-05T01:34:44.549Z,56.04
2023-05-05T01:37:17.549Z,56.50
2023-05-05T01:39:50.072Z,56.81
2023-05-05T01:42:17.956Z,57.29
2023-05-05T01:44:46.889Z,57.61
2023-05-05T01:47:17.743Z,57.72
2023-05-05T01:49:46.691Z,57.88
2023-05-05T01:52:15.454Z,58.00
2023-05-05T01:54:43.699Z,58.26
2023-05-05T01:57:12.162Z,58.63
2023-05-05T01:59:39.113Z,58.35
2023-05-05T02:02:08.449Z,58.66
2023-05-05T02:04:40.383Z,58.53
2023-05-05T02:07:08.156Z,58.79
2023-05-05T02:09:36.635Z,59.08
2023-05-05T02:12:03.987Z,59.09
2023-05-05T02:14:32.182Z,58.92
2023-05-05T02:16:59.034Z,59.12
2023-05-05T02:19:31.421Z,59.16
2023-05-05T02:21:57.728Z,59.93
2023-05-05T02:24:25.725Z,59.94
2023-05-05T02:26:56.299Z,60.18
2023-05-05T02:29:43.613Z,60.41
2023-05-05T02:32:16.297Z,60.37
2023-05-05T02:34:46.417Z,60.15
2023-05-05T02:37:20.648Z,60.30
2023-05-05T02:39:58.094Z,60.41
2023-05-05T02:42:29.308Z,60.18
2023-05-05T02:45:01.301Z,60.29
2023-05-05T02:47:35.192Z,59.92
2023-05-05T02:50:03.095Z,59.45
2023-05-05T02:52:29.817Z,59.30
2023-05-05T02:54:56.148Z,59.62
2023-05-05T02:57:30.830Z,59.51
2023-05-05T03:00:07.387Z,59.07
2023-05-05T03:02:44.425Z,59.30
2023-05-05T03:05:18.398Z,58.93
2023-05-05T03:08:01.417Z,59.16
2023-05-05T03:10:39.334Z,59.11
2023-05-05T03:13:10.086Z,59.11
2023-05-05T03:15:45.449Z,59.28
2023-05-05T03:18:14.931Z,59.48
2023-05-05T03:20:43.214Z,59.70
2023-05-05T03:23:14.269Z,59.62
2023-05-05T03:25:46.102Z,59.98
2023-05-05T03:28:18.287Z,60.13
2023-05-05T03:30:45.031Z,60.45
2023-05-05T03:33:11.915Z,60.41
2023-05-05T03:35:39.055Z,60.51
2023-05-05T03:38:06.512Z,60.42
2023-05-05T03:40:43.596Z,60.42
2023-05-05T03:43:11.654Z,60.67
2023-05-05T03:45:38.105Z,60.63
2023-05-05T03:48:05.362Z,60.39
2023-05-05T03:50:31.735Z,60.50
2023-05-05T03:52:58.062Z,60.60
2023-05-05T03:55:25.185Z,60.69
2023-05-05T03:57:51.521Z,60.94
2023-05-05T04:00:18.312Z,61.40
2023-05-05T04:02:44.829Z,61.87
2023-05-05T04:05:11.655Z,62.25
2023-05-05T04:07:38.042Z,62.36
2023-05-05T04:10:06.179Z,62.81
2023-05-05T04:12:32.942Z,62.90
2023-05-05T04:14:59.444Z,62.77
2023-05-05T04:17:25.902Z,62.84
2023-05-05T04:19:52.778Z,63.11
2023-05-05T04:22:19.147Z,63.11
2023-05-05T04:24:46.536Z,62.88
2023-05-05T04:27:13.402Z,62.63
2023-05-05T04:29:39.963Z,62.66
2023-05-05T04:32:07.005Z,62.34
2023-05-05T04:34:33.378Z,62.41
2023-05-05T04:36:59.998Z,62.69
2023-05-05T04:39:28.149Z,62.93
2023-05-05T04:41:54.521Z,62.90
2023-05-05T04:44:20.848Z,62.86
2023-05-05T04:46:47.400Z,62.09
2023-05-05T04:49:15.361Z,62.24
2023-05-05T04:51:42.166Z,62.11
2023-05-05T04:54:09.299Z,62.41
2023-05-05T04:56:36.402Z,62.56
2023-05-05T04:59:02.883Z,62.27
2023-05-05T05:01:29.836Z,61.69
2023-05-05T05:03:56.420Z,61.56
2023-05-05T05:06:22.905Z,61.72
2023-05-05T05:08:49.573Z,62.19
2023-05-05T05:11:15.908Z,61.75
2023-05-05T05:13:42.279Z,61.84
2023-05-05T05:16:08.684Z,62.10
2023-05-05T05:18:35.254Z,61.94
2023-05-05T05:21:02.793Z,61.44
2023-05-05T05:23:29.149Z,61.67
2023-05-05T05:25:56.541Z,61.02
2023-05-05T05:28:23.021Z,60.65
2023-05-05T05:30:51.969Z,60.83
2023-05-05T05:33:19.099Z,60.90
2023-05-05T05:35:45.844Z,60.51
2023-05-05T05:38:12.680Z,60.35
2023-05-05T05:40:39.009Z,59.82
2023-05-05T05:43:05.760Z,60.05
2023-05-05T05:45:32.485Z,59.61
2023-05-05T05:47:58.957Z,59.45
2023-05-05T05:50:27.757Z,58.71
2023-05-05T05:52:54.780Z,58.23
2023-05-05T05:55:21.558Z,57.99
2023-05-05T05:57:47.924Z,57.37
2023-05-05T06:00:17.874Z,56.93
2023-05-05T06:02:45.615Z,56.37
2023-05-05T06:05:14.127Z,56.31
2023-05-05T06:07:41.245Z,56.53
2023-05-05T06:10:25.645Z,56.19
2023-05-05T06:12:54.427Z,56.00
2023-05-05T06:15:21.080Z,56.28
2023-05-05T06:17:47.901Z,56.12
2023-05-05T06:20:14.360Z,55.41
2023-05-05T06:22:40.733Z,54.89
2023-05-05T06:25:07.476Z,54.33
2023-05-05T06:27:34.108Z,54.49
2023-05-05T06:30:00.482Z,54.15
2023-05-05T06:32:26.807Z,54.37
2023-05-05T06:34:53.040Z,54.22
2023-05-05T06:37:19.445Z,54.31
2023-05-05T06:39:45.808Z,53.36
2023-05-05T06:42:12.098Z,53.38
2023-05-05T06:44:38.519Z,53.40
2023-05-05T06:47:05.040Z,53.32
2023-05-05T06:49:31.378Z,52.88
2023-05-05T06:51:57.842Z,52.13
2023-05-05T06:54:24.124Z,52.26
2023-05-05T06:56:50.655Z,51.60
2023-05-05T06:59:17.721Z,51.17
2023-05-05T07:01:44.078Z,51.41
2023-05-05T07:04:10.610Z,50.58
2023-05-05T07:06:36.931Z,50.52
2023-05-05T07:09:03.673Z,50.24
2023-05-05T07:11:30.032Z,49.87
2023-05-05T07:13:56.327Z,49.47
2023-05-05T07:16:24.171Z,49.14
2023-05-05T07:18:50.442Z,48.43
2023-05-05T07:21:16.757Z,48.72
2023-05-05T07:23:45.476Z,48.57
2023-05-05T07:26:11.809Z,48.59
2023-05-05T07:28:38.062Z,48.26
2023-05-05T07:31:04.467Z,48.38
2023-05-05T07:33:30.888Z,47.87
2023-05-05T07:35:57.230Z,47.53
2023-05-05T07:38:24.917Z,46.62
2023-05-05T07:40:51.187Z,46.30
2023-05-05T07:43:17.520Z,46.39
2023-05-05T07:45:43.819Z,46.21
2023-05-05T07:48:10.300Z,45.90
2023-05-05T07:50:36.705Z,45.88
2023-05-05T07:53:13.554Z,45.48
2023-05-05T07:55:40.722Z,45.86
2023-05-05T07:58:07.704Z,45.84
2023-05-05T08:00:34.027Z,45.04
2023-05-05T08:03:00.425Z,44.47
2023-05-05T08:05:26.864Z,44.21
2023-05-05T08:07:53.287Z,44.39
2023-05-05T08:10:21.213Z,43.81
2023-05-05T08:12:47.906Z,44.08
2023-05-05T08:15:14.202Z,43.70
2023-05-05T08:17:52.589Z,43.32
2023-05-05T08:20:20.082Z,43.10
2023-05-05T08:22:47.295Z,42.58
2023-05-05T08:25:13.924Z,42.35
2023-05-05T08:27:42.144Z,42.17
2023-05-05T08:30:09.225Z,41.59
2023-05-05T08:32:35.634Z,41.92
2023-05-05T08:35:02.802Z,41.38
2023-05-05T08:37:29.146Z,40.89
2023-05-05T08:39:57.101Z,41.11
2023-05-05T08:42:36.084Z,41.27
2023-05-05T08:45:03.389Z,40.83
2023-05-05T08:47:31.369Z,40.89
2023-05-05T08:49:59.033Z,41.31
2023-05-05T08:52:31.839Z,41.45
2023-05-05T08:55:05.256Z,41.65
2023-05-05T08:57:45.773Z,41.70
2023-05-05T09:00:12.605Z,41.94
2023-05-05T09:02:42.133Z,41.72
2023-05-05T09:05:09.163Z,41.23
2023-05-05T09:07:36.045Z,41.82
2023-05-05T09:10:03.898Z,41.99
2023-05-05T09:12:31.096Z,41.62
2023-05-05T09:14:59.058Z,41.14
2023-05-05T09:17:26.460Z,41.82
2023-05-05T09:20:02.109Z,41.72
2023-05-05T09:22:38.509Z,41.31
2023-05-05T09:25:06.977Z,41.20
2023-05-05T09:27:40.062Z,41.40
2023-05-05T09:30:07.648Z,40.76
2023-05-05T09:32:48.121Z,40.96
2023-05-05T09:35:15.680Z,40.89
2023-05-05T09:37:42.379Z,40.67
2023-05-05T09:40:10.539Z,41.07
2023-05-05T09:42:38.054Z,41.03
2023-05-05T09:45:24.468Z,41.41
2023-05-05T09:47:52.010Z,41.26
2023-05-05T09:50:21.536Z,41.17
2023-05-05T09:52:55.353Z,41.46
2023-05-05T09:55:23.304Z,41.47
2023-05-05T09:57:49.742Z,41.52
2023-05-05T10:00:16.279Z,41.21
2023-05-05T10:02:42.680Z,40.96
2023-05-05T10:05:11.997Z,41.25
2023-05-05T10:07:40.323Z,41.10
2023-05-05T10:10:14.702Z,41.04
2023-05-05T10:12:41.538Z,41.23
2023-05-05T10:15:13.016Z,41.28
2023-05-05T10:17:57.829Z,41.33
2023-05-05T10:20:32.658Z,41.49
2023-05-05T10:23:03.853Z,41.72
2023-05-05T10:25:38.129Z,41.74
2023-05-05T10:28:06.034Z,41.26
2023-05-05T10:30:40.405Z,41.56
2023-05-05T10:33:54.711Z,41.28
2023-05-05T10:36:21.946Z,41.34
2023-05-05T10:38:53.588Z,41.54
2023-05-05T10:41:20.494Z,41.27
2023-05-05T10:43:47.624Z,41.68
2023-05-05T10:46:13.955Z,41.07
2023-05-05T10:48:48.587Z,41.03
2023-05-05T10:51:41.303Z,41.15
2023-05-05T10:54:22.445Z,41.78
2023-05-05T10:56:49.151Z,41.63
2023-05-05T10:59:37.484Z,41.63
2023-05-05T11:02:24.169Z,41.50
2023-05-05T11:05:08.837Z,42.01
2023-05-05T11:07:36.321Z,42.34
2023-05-05T11:10:11.089Z,42.39
2023-05-05T11:13:01.197Z,42.27
2023-05-05T11:15:27.830Z,42.33
2023-05-05T11:17:55.999Z,42.33
2023-05-05T11:20:35.044Z,42.32
2023-05-05T11:23:01.306Z,42.05
2023-05-05T11:25:36.910Z,42.28
2023-05-05T11:28:11.172Z,42.39
2023-05-05T11:30:58.810Z,42.60
2023-05-05T11:33:29.882Z,41.96
2023-05-05T11:36:09.944Z,41.93
2023-05-05T11:38:54.892Z,42.06
2023-05-05T11:41:33.186Z,42.55
2023-05-05T11:44:19.855Z,42.35
2023-05-05T11:46:51.905Z,42.74
2023-05-05T11:49:35.277Z,42.87
2023-05-05T11:52:07.650Z,42.88
2023-05-05T11:54:35.801Z,43.00
2023-05-05T11:57:07.708Z,42.05
2023-05-05T11:59:36.617Z,41.92
2023-05-05T12:02:03.790Z,41.68
2023-05-05T12:04:30.930Z,42.18
2023-05-05T12:06:58.538Z,42.51
2023-05-05T12:09:25.112Z,42.48
2023-05-05T12:11:57.804Z,42.21
2023-05-05T12:14:25.002Z,41.54
2023-05-05T12:17:00.639Z,41.10
2023-05-05T12:19:32.572Z,41.45
2023-05-05T12:22:03.576Z,41.30
2023-05-05T12:24:30.382Z,41.12
2023-05-05T12:27:10.670Z,41.03
2023-05-05T12:29:37.057Z,40.61
2023-05-05T12:32:03.865Z,40.54
2023-05-05T12:34:31.043Z,40.65
2023-05-05T12:36:57.610Z,40.83
2023-05-05T12:39:34.167Z,40.43
2023-05-05T12:42:04.269Z,40.19
2023-05-05T12:44:35.456Z,40.06
2023-05-05T12:47:01.901Z,39.82
2023-05-05T12:49:28.264Z,39.91
2023-05-05T12:51:56.241Z,39.95
2023-05-05T12:54:24.334Z,39.95
2023-05-05T12:56:50.608Z,39.97
2023-05-05T12:59:20.094Z,39.90
2023-05-05T13:01:52.073Z,40.00
2023-05-05T13:04:19.479Z,40.08
2023-05-05T13:06:48.720Z,40.15
2023-05-05T13:09:35.606Z,40.00
2023-05-05T13:12:03.199Z,39.92
2023-05-05T13:14:31.172Z,39.98
2023-05-05T13:16:57.547Z,40.23
2023-05-05T13:19:24.347Z,40.02
2023-05-05T13:21:51.986Z,39.95
2023-05-05T13:24:28.530Z,39.94
2023-05-05T13:27:02.284Z,40.16
2023-05-05T13:29:31.613Z,40.41
2023-05-05T13:31:58.673Z,40.21
2023-05-05T13:34:25.031Z,40.28
2023-05-05T13:36:51.331Z,40.24
2023-05-05T13:39:17.770Z,40.32
2023-05-05T13:41:44.635Z,40.35
2023-05-05T13:44:11.678Z,40.58
2023-05-05T13:46:37.993Z,41.24
2023-05-05T13:49:04.367Z,41.50
2023-05-05T13:51:30.674Z,41.40
2023-05-05T13:53:56.972Z,41.47
2023-05-05T13:56:25.455Z,41.56
2023-05-05T13:58:51.703Z,41.89
2023-05-05T14:01:18.049Z,41.93
2023-05-05T14:03:44.451Z,41.68
2023-05-05T14:06:10.860Z,41.74
2023-05-05T14:08:37.258Z,42.14
2023-05-05T14:11:04.033Z,42.11
2023-05-05T14:13:30.636Z,42.12
2023-05-05T14:15:57.678Z,42.16
2023-05-05T14:18:24.906Z,42.14
2023-05-05T14:20:51.182Z,42.41
2023-05-05T14:23:17.476Z,42.79
2023-05-05T14:25:43.829Z,42.73
2023-05-05T14:28:10.328Z,42.95
2023-05-05T14:30:36.594Z,42.50
2023-05-05T14:33:02.932Z,42.70
2023-05-05T14:35:30.363Z,42.70
2023-05-05T14:37:56.686Z,43.01
2023-05-05T14:40:22.946Z,42.61
2023-05-05T14:42:50.136Z,42.38
2023-05-05T14:45:16.566Z,42.24
2023-05-05T14:47:42.977Z,42.59
2023-05-05T14:50:09.799Z,42.62
2023-05-05T14:52:38.591Z,42.28
2023-05-05T14:55:06.097Z,42.07
2023-05-05T14:57:32.515Z,42.26
2023-05-05T15:00:01.080Z,42.11
2023-05-05T15:02:27.718Z,41.81
2023-05-05T15:04:54.241Z,42.18
2023-05-05T15:07:21.881Z,42.15
2023-05-05T15:09:48.202Z,42.26
2023-05-05T15:12:14.519Z,42.33
2023-05-05T15:14:41.512Z,42.31
2023-05-05T15:17:07.843Z,42.29
2023-05-05T15:19:34.253Z,42.66
2023-05-05T15:22:00.654Z,42.66
2023-05-05T15:24:27.031Z,42.72
2023-05-05T15:26:53.366Z,42.86
2023-05-05T15:29:19.719Z,42.45
2023-05-05T15:31:46.053Z,42.39
2023-05-05T15:34:12.377Z,42.70
2023-05-05T15:36:38.620Z,42.78
2023-05-05T15:39:04.946Z,43.01
2023-05-05T15:41:33.546Z,43.19
2023-05-05T15:44:01.350Z,43.44
2023-05-05T15:46:30.891Z,43.42
2023-05-05T15:48:57.225Z,43.50
2023-05-05T15:51:23.667Z,43.65
2023-05-05T15:53:51.595Z,43.70
2023-05-05T15:56:18.219Z,44.03
2023-05-05T15:58:44.638Z,43.97
2023-05-05T16:01:11.043Z,44.32
2023-05-05T16:03:37.358Z,44.44
2023-05-05T16:06:03.687Z,44.16
2023-05-05T16:08:29.941Z,44.29
2023-05-05T16:10:56.219Z,44.10
2023-05-05T16:13:22.552Z,44.17
2023-05-05T16:15:48.895Z,44.55
2023-05-05T16:18:15.271Z,44.68
2023-05-05T16:20:41.548Z,44.78
2023-05-05T16:23:08.002Z,44.80
2023-05-05T16:25:34.376Z,45.11
2023-05-05T16:28:01.049Z,45.14
2023-05-05T16:30:28.723Z,44.60
2023-05-05T16:32:55.080Z,44.56
2023-05-05T16:35:22.285Z,44.82
2023-05-05T16:37:48.575Z,44.97
2023-05-05T16:40:15.159Z,44.73
2023-05-05T16:42:43.689Z,44.88
2023-05-05T16:45:10.955Z,44.99
2023-05-05T16:47:37.412Z,45.16
2023-05-05T16:50:04.392Z,45.36
2023-05-05T16:52:30.664Z,45.58
2023-05-05T16:54:56.982Z,45.97
2023-05-05T16:57:23.727Z,46.06
2023-05-05T16:59:50.257Z,46.15
2023-05-05T17:02:16.568Z,46.39
2023-05-05T17:04:42.943Z,46.45
2023-05-05T17:07:09.213Z,46.53
2023-05-05T17:09:35.500Z,46.80
2023-05-05T17:12:03.596Z,47.05
2023-05-05T17:14:30.404Z,47.27
2023-05-05T17:16:56.636Z,47.51
2023-05-05T17:19:22.930Z,47.94
2023-05-05T17:21:49.233Z,48.20
2023-05-05T17:24:15.565Z,48.12
2023-05-05T17:26:41.934Z,48.31
2023-05-05T17:29:08.206Z,48.56
2023-05-05T17:31:34.574Z,48.63
2023-05-05T17:34:00.885Z,48.93
2023-05-05T17:36:27.165Z,49.19
2023-05-05T17:38:53.458Z,48.75
2023-05-05T17:41:19.734Z,49.50
2023-05-05T17:43:46.117Z,49.30
2023-05-05T17:46:12.482Z,49.77
2023-05-05T17:48:38.770Z,49.78
2023-05-05T17:51:05.100Z,50.16
2023-05-05T17:53:31.386Z,50.15
2023-05-05T17:55:57.758Z,50.42
2023-05-05T17:58:24.070Z,50.45
2023-05-05T18:00:50.623Z,50.88
2023-05-05T18:03:17.096Z,50.64
2023-05-05T18:05:43.537Z,51.19
2023-05-05T18:08:10.482Z,50.95
2023-05-05T18:10:36.857Z,51.35
2023-05-05T18:13:03.233Z,51.24
2023-05-05T18:15:29.608Z,51.60
2023-05-05T18:17:56.050Z,51.51
2023-05-05T18:20:22.437Z,51.78
2023-05-05T18:22:48.878Z,52.06
2023-05-05T18:25:15.401Z,51.79
2023-05-05T18:27:43.141Z,52.17
2023-05-05T18:30:10.086Z,52.61
2023-05-05T18:32:36.813Z,52.79
2023-05-05T18:35:03.481Z,52.87
2023-05-05T18:37:29.766Z,53.27
2023-05-05T18:39:56.262Z,53.35
2023-05-05T18:42:22.566Z,53.48
2023-05-05T18:44:48.881Z,53.73
2023-05-05T18:47:15.406Z,53.63
2023-05-05T18:49:41.726Z,53.91
2023-05-05T18:52:07.965Z,54.36
2023-05-05T18:54:36.215Z,54.49
2023-05-05T18:57:03.893Z,54.74
2023-05-05T18:59:30.208Z,54.83
2023-05-05T19:01:56.571Z,54.85
2023-05-05T19:04:30.076Z,55.10
2023-05-05T19:06:58.596Z,55.35
2023-05-05T19:09:24.909Z,55.59
2023-05-05T19:11:51.597Z,55.78
2023-05-05T19:14:17.919Z,56.02
2023-05-05T19:16:44.321Z,56.02
2023-05-05T19:19:10.663Z,56.17
2023-05-05T19:21:37.388Z,56.30
2023-05-05T19:24:03.894Z,56.50
2023-05-05T19:26:31.013Z,56.79
2023-05-05T19:28:57.388Z,56.86
2023-05-05T19:31:26.800Z,57.00
2023-05-05T19:34:00.989Z,57.29
2023-05-05T19:36:28.240Z,57.45
2023-05-05T19:38:55.087Z,57.72
2023-05-05T19:41:21.412Z,57.75
2023-05-05T19:43:49.108Z,57.86
2023-05-05T19:46:16.291Z,58.04
2023-05-05T19:48:42.893Z,58.20
2023-05-05T19:51:09.177Z,58.39
2023-05-05T19:53:35.747Z,58.54
2023-05-05T19:56:02.062Z,58.87
2023-05-05T19:58:28.310Z,59.01
2023-05-05T20:00:54.625Z,59.18
2023-05-05T20:03:21.089Z,59.51
2023-05-05T20:05:47.579Z,59.57
2023-05-05T20:08:13.859Z,59.89
2023-05-05T20:10:40.158Z,59.96
2023-05-05T20:13:06.607Z,60.31
2023-05-05T20:15:33.340Z,60.31
2023-05-05T20:17:59.944Z,60.52
2023-05-05T20:20:26.281Z,60.87
2023-05-05T20:22:52.663Z,61.05
2023-05-05T20:25:19.073Z,61.16
2023-05-05T20:27:45.574Z,61.33
2023-05-05T20:30:12.329Z,61.57
2023-05-05T20:32:38.722Z,61.72
2023-05-05T20:35:05.509Z,62.07
2023-05-05T20:37:31.895Z,62.20
2023-05-05T20:39:58.145Z,62.74
2023-05-05T20:42:25.580Z,63.17
2023-05-05T20:44:51.869Z,63.47
2023-05-05T20:47:18.135Z,63.92
2023-05-05T20:49:44.380Z,64.27
2023-05-05T20:52:10.693Z,64.74
2023-05-05T20:54:38.305Z,65.08
2023-05-05T20:57:06.684Z,65.44
2023-05-05T20:59:33.079Z,65.99
2023-05-05T21:01:59.413Z,66.32
2023-05-05T21:04:25.782Z,66.11
2023-05-05T21:06:52.100Z,66.40
2023-05-05T21:09:20.607Z,66.62
2023-05-05T21:11:47.882Z,67.07
2023-05-05T21:14:14.277Z,67.47
2023-05-05T21:16:41.007Z,68.00
2023-05-05T21:19:07.461Z,68.34
2023-05-05T21:21:33.869Z,68.04
2023-05-05T21:24:00.442Z,68.42
2023-05-05T21:26:26.752Z,69.20
2023-05-05T21:28:53.166Z,69.08
2023-05-05T21:31:22.188Z,69.31
2023-05-05T21:33:48.915Z,69.56
2023-05-05T21:36:16.813Z,70.04
2023-05-05T21:38:43.197Z,69.93
2023-05-05T21:41:09.515Z,70.16
2023-05-05T21:43:35.921Z,70.63
2023-05-05T21:46:04.435Z,70.63
2023-05-05T21:48:31.818Z,70.56
2023-05-05T21:50:58.131Z,70.96
2023-05-05T21:53:24.469Z,70.74
2023-05-05T21:55:50.919Z,70.94
2023-05-05T21:58:17.201Z,71.04
2023-05-05T22:00:44.271Z,71.20
2023-05-05T22:03:10.600Z,71.33
2023-05-05T22:05:36.935Z,71.34
2023-05-05T22:08:03.475Z,71.86
2023-05-05T22:10:29.759Z,71.95
2023-05-05T22:12:57.243Z,71.95
2023-05-05T22:15:27.637Z,71.96
2023-05-05T22:17:56.395Z,72.25
2023-05-05T22:20:22.832Z,72.64
2023-05-05T22:22:49.149Z,72.88
2023-05-05T22:25:15.533Z,73.00
2023-05-05T22:27:42.158Z,73.24
2023-05-05T22:30:08.906Z,73.83
2023-05-05T22:32:35.220Z,73.59
2023-05-05T22:35:01.672Z,74.01
2023-05-05T22:37:28.158Z,74.59
2023-05-05T22:39:54.409Z,74.96
2023-05-05T22:42:20.664Z,74.79
2023-05-05T22:44:47.001Z,74.97
2023-05-05T22:47:13.402Z,75.01
2023-05-05T22:49:39.757Z,75.89
2023-05-05T22:52:06.777Z,75.84
2023-05-05T22:54:33.057Z,76.05
2023-05-05T22:56:59.498Z,76.21
2023-05-05T22:59:25.775Z,76.11
2023-05-05T23:01:52.113Z,76.58
2023-05-05T23:04:18.648Z,76.19
2023-05-05T23:06:45.360Z,76.45
2023-05-05T23:09:12.014Z,76.33
2023-05-05T23:11:38.261Z,76.54
2023-05-05T23:14:04.615Z,76.77
2023-05-05T23:16:30.909Z,76.63
2023-05-05T23:18:57.223Z,76.53
2023-05-05T23:21:23.558Z,76.44
2023-05-05T23:23:49.839Z,76.14
2023-05-05T23:26:16.193Z,75.84
2023-05-05T23:28:42.533Z,75.91
2023-05-05T23:31:08.867Z,75.16
2023-05-05T23:33:35.192Z,74.41
2023-05-05T23:36:01.631Z,74.05
2023-05-05T23:38:27.929Z,74.02
2023-05-05T23:40:54.304Z,73.73
2023-05-05T23:43:20.592Z,73.31
2023-05-05T23:45:46.945Z,73.09
2023-05-05T23:48:13.238Z,72.41
2023-05-05T23:50:39.573Z,71.65
2023-05-05T23:53:05.936Z,70.89
2023-05-05T23:55:32.218Z,70.02
2023-05-05T23:57:58.508Z,69.15
